This is the latest recevied weather packets stored in our database for station/object KD5UMO-1. If no packets are shown the sender has not sent any weather packets the latest 10 day(s).
| Time | Temp. | Humidity | Pressure | Rain* | Wind** | Luminosity | Snow |
|---|---|---|---|---|---|---|---|
| 1777925727 | 27.78° C | 53% | 1009.1 hPa | 0 mm | - | 776 W/m² | - |
| 1777925425 | 28.33° C | 52% | 1009.2 hPa | 0 mm | - | 347 W/m² | - |
| 1777925121 | 27.22° C | 53% | 1009.3 hPa | 0 mm | - | 872 W/m² | - |
| 1777924819 | 27.78° C | 51% | 1009.5 hPa | 0 mm | - | 806 W/m² | - |
| 1777924514 | 27.22° C | 53% | 1009.5 hPa | 0 mm | - | 781 W/m² | - |
| 1777924211 | 27.22° C | 53% | 1009.6 hPa | 0 mm | - | 847 W/m² | - |
| 1777923908 | 26.67° C | 53% | 1009.7 hPa | 0 mm | - | 803 W/m² | - |
| 1777923603 | 26.67° C | 52% | 1009.8 hPa | 0 mm | - | 823 W/m² | - |
| 1777923300 | 27.22° C | 53% | 1009.8 hPa | 0 mm | - | 757 W/m² | - |
| 1777922999 | 26.67° C | 52% | 1009.6 hPa | 0 mm | - | 865 W/m² | - |
| 1777922696 | 27.22° C | 51% | 1009.9 hPa | 0 mm | - | 545 W/m² | - |
| 1777922394 | 27.22° C | 52% | 1009.8 hPa | 0 mm | - | 822 W/m² | - |
| 1777922092 | 26.11° C | 53% | 1010.2 hPa | 0 mm | - | 668 W/m² | - |
| 1777921787 | 26.67° C | 53% | 1010.5 hPa | 0 mm | - | 470 W/m² | - |
| 1777921483 | 26.67° C | 52% | 1010.2 hPa | 0 mm | - | 895 W/m² | - |
| 1777921180 | 27.22° C | 52% | 1010.2 hPa | 0 mm | - | 847 W/m² | - |
| 1777920877 | 26.11° C | 52% | 1010.3 hPa | 0 mm | - | 918 W/m² | - |
| 1777920573 | 26.67° C | 52% | 1010.5 hPa | 0 mm | - | 724 W/m² | - |
| 1777920269 | 26.11° C | 53% | 1010.1 hPa | 0 mm | - | 923 W/m² | - |
| 1777919965 | 26.11° C | 52% | 1010.6 hPa | 0 mm | - | 543 W/m² | - |
| 1777919663 | 26.11° C | 51% | 1010.6 hPa | 0 mm | - | 828 W/m² | - |
| 1777919360 | 26.67° C | 50% | 1010.3 hPa | 0 mm | - | 670 W/m² | - |
| 1777919057 | 26.67° C | 49% | 1010.7 hPa | 0 mm | - | 834 W/m² | - |
| 1777918754 | 25.56° C | 52% | 1010.7 hPa | 0 mm | - | 877 W/m² | - |
| 1777918451 | 26.11° C | 50% | 1011 hPa | 0 mm | - | 780 W/m² | - |
* Rain latest hour (hover to see other rain measurements)
** Current wind speed in m/s (hover to see current wind gust speed)